Lagunita, New Mexico
Current Conditions -  °F | °C
As of 6:53 AM on Wednesday 28 Jan 2015 (Local Time) from KCQC Reporting Station
Clear Clear  
Wind Chill: 28°   Ceiling: Unl
Heat Index: 39°   Visibility: 10mi
Dew Point: 32°   Wind: 28mph
Humidity: 76%   Direction: 300°WNW
Pressure: 30.18"   Gusts: NA
Location:  35.2352°N, 105.52°W
Report Text: KCQC 281353Z AUTO 30024KT 10SM CLR 04/00 A3018 RMK AO2 PK WND 29031/1348 SLP198 T00390000
Loading
Personal Weather Stations






























Interactive Weather Map New forecast layout! Learn more

10-Day Weather Forecast

Advertisements
Track Severe Weather on mobile